sensor_id;sensor_type;location;lat;lon;timestamp;P1;durP1;ratioP1;P2;durP2;ratioP2
57947;SDS011;43754;56.992;24.292;2022-10-31T00:00:14;90.05;;;35.75;;
57947;SDS011;43754;56.992;24.292;2022-10-31T00:02:47;80.20;;;32.75;;
57947;SDS011;43754;56.992;24.292;2022-10-31T00:05:19;66.65;;;28.42;;
57947;SDS011;43754;56.992;24.292;2022-10-31T00:07:51;79.88;;;28.98;;
57947;SDS011;43754;56.992;24.292;2022-10-31T00:10:24;81.65;;;29.13;;
57947;SDS011;43754;56.992;24.292;2022-10-31T00:12:56;67.60;;;26.23;;
57947;SDS011;43754;56.992;24.292;2022-10-31T00:15:30;77.85;;;27.70;;
57947;SDS011;43754;56.992;24.292;2022-10-31T00:18:04;71.90;;;27.23;;
57947;SDS011;43754;56.992;24.292;2022-10-31T00:20:38;75.55;;;28.90;;
57947;SDS011;43754;56.992;24.292;2022-10-31T00:23:10;72.15;;;28.17;;
57947;SDS011;43754;56.992;24.292;2022-10-31T00:25:42;67.40;;;27.30;;
57947;SDS011;43754;56.992;24.292;2022-10-31T00:28:14;68.22;;;28.67;;
57947;SDS011;43754;56.992;24.292;2022-10-31T00:30:48;76.88;;;29.20;;
57947;SDS011;43754;56.992;24.292;2022-10-31T00:33:19;71.45;;;27.88;;
57947;SDS011;43754;56.992;24.292;2022-10-31T00:35:52;79.55;;;28.95;;
57947;SDS011;43754;56.992;24.292;2022-10-31T00:38:24;75.88;;;30.60;;
57947;SDS011;43754;56.992;24.292;2022-10-31T00:40:56;69.07;;;28.88;;
57947;SDS011;43754;56.992;24.292;2022-10-31T00:43:28;73.88;;;29.10;;
57947;SDS011;43754;56.992;24.292;2022-10-31T00:46:01;68.03;;;29.77;;
57947;SDS011;43754;56.992;24.292;2022-10-31T00:48:33;73.45;;;31.70;;
57947;SDS011;43754;56.992;24.292;2022-10-31T00:51:05;61.70;;;25.60;;
57947;SDS011;43754;56.992;24.292;2022-10-31T00:53:37;53.25;;;25.25;;
57947;SDS011;43754;56.992;24.292;2022-10-31T00:56:09;54.25;;;25.17;;
57947;SDS011;43754;56.992;24.292;2022-10-31T00:58:42;45.85;;;22.02;;
57947;SDS011;43754;56.992;24.292;2022-10-31T01:01:15;51.63;;;22.20;;
57947;SDS011;43754;56.992;24.292;2022-10-31T01:03:47;50.85;;;22.30;;
57947;SDS011;43754;56.992;24.292;2022-10-31T01:06:19;46.50;;;19.48;;
57947;SDS011;43754;56.992;24.292;2022-10-31T01:08:51;55.72;;;21.85;;
57947;SDS011;43754;56.992;24.292;2022-10-31T01:11:23;60.78;;;26.85;;
57947;SDS011;43754;56.992;24.292;2022-10-31T01:13:55;47.65;;;23.60;;
57947;SDS011;43754;56.992;24.292;2022-10-31T01:16:29;59.58;;;25.27;;
57947;SDS011;43754;56.992;24.292;2022-10-31T01:19:01;68.10;;;29.15;;
57947;SDS011;43754;56.992;24.292;2022-10-31T01:21:34;63.22;;;25.90;;
57947;SDS011;43754;56.992;24.292;2022-10-31T01:24:06;36.03;;;17.88;;
57947;SDS011;43754;56.992;24.292;2022-10-31T01:26:42;40.67;;;18.00;;
57947;SDS011;43754;56.992;24.292;2022-10-31T01:29:14;42.47;;;19.73;;
57947;SDS011;43754;56.992;24.292;2022-10-31T01:31:47;42.65;;;20.20;;
57947;SDS011;43754;56.992;24.292;2022-10-31T01:34:19;34.83;;;15.27;;
57947;SDS011;43754;56.992;24.292;2022-10-31T01:36:51;37.03;;;15.88;;
57947;SDS011;43754;56.992;24.292;2022-10-31T01:39:23;33.92;;;13.93;;
57947;SDS011;43754;56.992;24.292;2022-10-31T01:41:55;32.53;;;15.45;;
57947;SDS011;43754;56.992;24.292;2022-10-31T01:47:34;31.92;;;14.77;;
57947;SDS011;43754;56.992;24.292;2022-10-31T01:50:22;26.13;;;11.68;;
57947;SDS011;43754;56.992;24.292;2022-10-31T01:52:59;23.85;;;11.13;;
57947;SDS011;43754;56.992;24.292;2022-10-31T01:55:33;24.77;;;11.38;;
57947;SDS011;43754;56.992;24.292;2022-10-31T01:58:11;29.08;;;11.52;;
57947;SDS011;43754;56.992;24.292;2022-10-31T02:00:50;25.58;;;9.98;;
57947;SDS011;43754;56.992;24.292;2022-10-31T02:03:26;20.45;;;10.25;;
57947;SDS011;43754;56.992;24.292;2022-10-31T02:06:00;23.13;;;12.18;;
57947;SDS011;43754;56.992;24.292;2022-10-31T02:08:37;37.65;;;15.65;;
57947;SDS011;43754;56.992;24.292;2022-10-31T02:11:11;29.60;;;14.55;;
57947;SDS011;43754;56.992;24.292;2022-10-31T02:13:45;35.75;;;13.82;;
57947;SDS011;43754;56.992;24.292;2022-10-31T02:16:18;31.33;;;13.40;;
57947;SDS011;43754;56.992;24.292;2022-10-31T02:18:52;31.67;;;14.13;;
57947;SDS011;43754;56.992;24.292;2022-10-31T02:21:26;25.88;;;12.32;;
57947;SDS011;43754;56.992;24.292;2022-10-31T02:27:17;18.50;;;9.07;;
57947;SDS011;43754;56.992;24.292;2022-10-31T02:30:07;24.13;;;11.90;;
57947;SDS011;43754;56.992;24.292;2022-10-31T02:32:52;25.75;;;11.60;;
57947;SDS011;43754;56.992;24.292;2022-10-31T02:35:36;22.73;;;11.20;;
57947;SDS011;43754;56.992;24.292;2022-10-31T02:38:26;26.45;;;12.30;;
57947;SDS011;43754;56.992;24.292;2022-10-31T02:41:14;40.92;;;17.02;;
57947;SDS011;43754;56.992;24.292;2022-10-31T02:43:58;34.05;;;12.98;;
57947;SDS011;43754;56.992;24.292;2022-10-31T02:49:21;28.77;;;13.07;;
57947;SDS011;43754;56.992;24.292;2022-10-31T02:51:58;34.97;;;12.85;;
57947;SDS011;43754;56.992;24.292;2022-10-31T02:54:30;36.97;;;12.27;;
57947;SDS011;43754;56.992;24.292;2022-10-31T02:57:04;29.50;;;12.75;;
57947;SDS011;43754;56.992;24.292;2022-10-31T02:59:39;29.50;;;11.75;;
57947;SDS011;43754;56.992;24.292;2022-10-31T03:02:23;31.13;;;12.68;;
57947;SDS011;43754;56.992;24.292;2022-10-31T03:05:16;30.38;;;12.00;;
57947;SDS011;43754;56.992;24.292;2022-10-31T03:08:00;27.45;;;10.70;;
57947;SDS011;43754;56.992;24.292;2022-10-31T03:10:40;22.52;;;10.90;;
57947;SDS011;43754;56.992;24.292;2022-10-31T03:13:17;33.50;;;13.02;;
57947;SDS011;43754;56.992;24.292;2022-10-31T03:15:56;30.35;;;11.75;;
57947;SDS011;43754;56.992;24.292;2022-10-31T03:18:39;23.80;;;11.93;;
57947;SDS011;43754;56.992;24.292;2022-10-31T03:21:16;30.33;;;12.75;;
57947;SDS011;43754;56.992;24.292;2022-10-31T03:23:52;25.27;;;11.30;;
57947;SDS011;43754;56.992;24.292;2022-10-31T03:26:27;32.47;;;13.05;;
57947;SDS011;43754;56.992;24.292;2022-10-31T03:29:02;28.58;;;12.15;;
57947;SDS011;43754;56.992;24.292;2022-10-31T03:31:39;39.05;;;13.38;;
57947;SDS011;43754;56.992;24.292;2022-10-31T03:34:17;31.52;;;12.50;;
57947;SDS011;43754;56.992;24.292;2022-10-31T03:36:53;32.63;;;12.38;;
57947;SDS011;43754;56.992;24.292;2022-10-31T03:39:28;35.97;;;13.38;;
57947;SDS011;43754;56.992;24.292;2022-10-31T03:42:03;29.58;;;13.00;;
57947;SDS011;43754;56.992;24.292;2022-10-31T03:44:37;31.83;;;14.20;;
57947;SDS011;43754;56.992;24.292;2022-10-31T03:47:14;30.27;;;12.35;;
57947;SDS011;43754;56.992;24.292;2022-10-31T03:49:46;23.25;;;10.38;;
57947;SDS011;43754;56.992;24.292;2022-10-31T03:52:22;19.58;;;9.57;;
57947;SDS011;43754;56.992;24.292;2022-10-31T03:55:00;23.02;;;9.25;;
57947;SDS011;43754;56.992;24.292;2022-10-31T03:57:37;18.42;;;7.90;;
57947;SDS011;43754;56.992;24.292;2022-10-31T04:00:15;18.42;;;8.38;;
57947;SDS011;43754;56.992;24.292;2022-10-31T04:02:49;20.73;;;9.85;;
57947;SDS011;43754;56.992;24.292;2022-10-31T04:05:25;28.50;;;11.93;;
57947;SDS011;43754;56.992;24.292;2022-10-31T04:08:07;26.90;;;10.98;;
57947;SDS011;43754;56.992;24.292;2022-10-31T04:10:42;26.23;;;11.13;;
57947;SDS011;43754;56.992;24.292;2022-10-31T04:13:17;31.48;;;10.88;;
57947;SDS011;43754;56.992;24.292;2022-10-31T04:16:02;30.27;;;10.98;;
57947;SDS011;43754;56.992;24.292;2022-10-31T04:18:36;28.88;;;11.45;;
57947;SDS011;43754;56.992;24.292;2022-10-31T04:21:08;25.35;;;10.73;;
57947;SDS011;43754;56.992;24.292;2022-10-31T04:23:42;22.60;;;9.20;;
57947;SDS011;43754;56.992;24.292;2022-10-31T04:26:21;24.17;;;10.82;;
57947;SDS011;43754;56.992;24.292;2022-10-31T04:28:55;34.28;;;11.90;;
57947;SDS011;43754;56.992;24.292;2022-10-31T04:31:30;28.88;;;11.00;;
57947;SDS011;43754;56.992;24.292;2022-10-31T04:34:02;22.83;;;11.00;;
57947;SDS011;43754;56.992;24.292;2022-10-31T04:36:34;26.45;;;10.27;;
57947;SDS011;43754;56.992;24.292;2022-10-31T04:39:08;23.75;;;10.30;;
57947;SDS011;43754;56.992;24.292;2022-10-31T04:41:49;20.67;;;8.48;;
57947;SDS011;43754;56.992;24.292;2022-10-31T04:44:22;29.73;;;11.48;;
57947;SDS011;43754;56.992;24.292;2022-10-31T04:46:56;23.52;;;11.15;;
57947;SDS011;43754;56.992;24.292;2022-10-31T04:49:28;22.63;;;12.18;;
57947;SDS011;43754;56.992;24.292;2022-10-31T04:52:00;24.75;;;11.25;;
57947;SDS011;43754;56.992;24.292;2022-10-31T04:54:34;30.30;;;14.48;;
57947;SDS011;43754;56.992;24.292;2022-10-31T04:57:41;24.40;;;11.75;;
57947;SDS011;43754;56.992;24.292;2022-10-31T05:00:15;24.23;;;11.60;;
57947;SDS011;43754;56.992;24.292;2022-10-31T05:02:49;21.88;;;9.23;;
57947;SDS011;43754;56.992;24.292;2022-10-31T05:05:22;20.85;;;10.18;;
57947;SDS011;43754;56.992;24.292;2022-10-31T05:07:57;25.10;;;11.60;;
57947;SDS011;43754;56.992;24.292;2022-10-31T05:10:31;28.40;;;13.73;;
57947;SDS011;43754;56.992;24.292;2022-10-31T05:13:04;22.70;;;10.38;;
57947;SDS011;43754;56.992;24.292;2022-10-31T05:16:03;24.95;;;11.68;;
57947;SDS011;43754;56.992;24.292;2022-10-31T05:18:54;28.40;;;12.90;;
57947;SDS011;43754;56.992;24.292;2022-10-31T05:24:37;33.85;;;12.40;;
57947;SDS011;43754;56.992;24.292;2022-10-31T05:27:10;23.65;;;11.60;;
57947;SDS011;43754;56.992;24.292;2022-10-31T05:29:42;55.53;;;21.00;;
57947;SDS011;43754;56.992;24.292;2022-10-31T05:32:15;42.20;;;17.38;;
57947;SDS011;43754;56.992;24.292;2022-10-31T05:35:26;43.78;;;18.65;;
57947;SDS011;43754;56.992;24.292;2022-10-31T05:38:17;67.65;;;25.50;;
57947;SDS011;43754;56.992;24.292;2022-10-31T05:40:49;62.95;;;22.67;;
57947;SDS011;43754;56.992;24.292;2022-10-31T05:43:23;93.70;;;33.67;;
57947;SDS011;43754;56.992;24.292;2022-10-31T05:45:56;78.07;;;30.73;;
57947;SDS011;43754;56.992;24.292;2022-10-31T05:51:37;90.35;;;33.40;;
57947;SDS011;43754;56.992;24.292;2022-10-31T05:54:09;74.05;;;30.25;;
57947;SDS011;43754;56.992;24.292;2022-10-31T05:56:48;90.72;;;30.85;;
57947;SDS011;43754;56.992;24.292;2022-10-31T05:59:23;118.05;;;41.13;;
57947;SDS011;43754;56.992;24.292;2022-10-31T06:01:55;157.80;;;61.45;;
57947;SDS011;43754;56.992;24.292;2022-10-31T06:04:56;109.45;;;40.22;;
57947;SDS011;43754;56.992;24.292;2022-10-31T06:07:32;102.70;;;39.08;;
57947;SDS011;43754;56.992;24.292;2022-10-31T06:10:05;98.30;;;37.88;;
57947;SDS011;43754;56.992;24.292;2022-10-31T06:12:39;79.65;;;34.65;;
57947;SDS011;43754;56.992;24.292;2022-10-31T06:15:30;97.37;;;36.93;;
57947;SDS011;43754;56.992;24.292;2022-10-31T06:18:03;114.28;;;40.50;;
57947;SDS011;43754;56.992;24.292;2022-10-31T06:20:50;111.43;;;41.78;;
57947;SDS011;43754;56.992;24.292;2022-10-31T06:23:23;154.27;;;52.20;;
57947;SDS011;43754;56.992;24.292;2022-10-31T06:26:09;155.05;;;56.30;;
57947;SDS011;43754;56.992;24.292;2022-10-31T06:28:41;159.93;;;60.40;;
57947;SDS011;43754;56.992;24.292;2022-10-31T06:31:30;128.45;;;46.60;;
57947;SDS011;43754;56.992;24.292;2022-10-31T06:34:02;109.28;;;47.13;;
57947;SDS011;43754;56.992;24.292;2022-10-31T06:36:34;106.00;;;45.03;;
57947;SDS011;43754;56.992;24.292;2022-10-31T06:39:07;110.88;;;47.45;;
57947;SDS011;43754;56.992;24.292;2022-10-31T06:41:40;110.53;;;46.53;;
57947;SDS011;43754;56.992;24.292;2022-10-31T06:44:14;167.65;;;73.28;;
57947;SDS011;43754;56.992;24.292;2022-10-31T06:46:59;150.13;;;61.35;;
57947;SDS011;43754;56.992;24.292;2022-10-31T06:49:57;147.13;;;60.72;;
57947;SDS011;43754;56.992;24.292;2022-10-31T06:52:30;150.88;;;62.08;;
57947;SDS011;43754;56.992;24.292;2022-10-31T06:55:02;134.95;;;60.95;;
57947;SDS011;43754;56.992;24.292;2022-10-31T06:57:36;124.80;;;62.10;;
57947;SDS011;43754;56.992;24.292;2022-10-31T07:00:09;140.25;;;63.67;;
57947;SDS011;43754;56.992;24.292;2022-10-31T07:02:56;121.30;;;56.60;;
57947;SDS011;43754;56.992;24.292;2022-10-31T07:05:29;162.57;;;75.80;;
57947;SDS011;43754;56.992;24.292;2022-10-31T07:08:03;190.90;;;92.03;;
57947;SDS011;43754;56.992;24.292;2022-10-31T07:10:37;154.52;;;74.30;;
57947;SDS011;43754;56.992;24.292;2022-10-31T07:13:13;157.07;;;74.63;;
57947;SDS011;43754;56.992;24.292;2022-10-31T07:15:54;147.38;;;72.88;;
57947;SDS011;43754;56.992;24.292;2022-10-31T07:18:32;159.20;;;80.63;;
57947;SDS011;43754;56.992;24.292;2022-10-31T07:21:04;141.35;;;71.50;;
57947;SDS011;43754;56.992;24.292;2022-10-31T07:23:37;194.68;;;82.70;;
57947;SDS011;43754;56.992;24.292;2022-10-31T07:26:41;114.85;;;53.03;;
57947;SDS011;43754;56.992;24.292;2022-10-31T07:29:14;152.15;;;69.18;;
57947;SDS011;43754;56.992;24.292;2022-10-31T07:31:47;143.48;;;65.53;;
57947;SDS011;43754;56.992;24.292;2022-10-31T07:34:26;134.23;;;53.95;;
57947;SDS011;43754;56.992;24.292;2022-10-31T07:37:17;118.65;;;52.00;;
57947;SDS011;43754;56.992;24.292;2022-10-31T07:39:49;74.50;;;34.58;;
57947;SDS011;43754;56.992;24.292;2022-10-31T07:42:21;65.32;;;30.33;;
57947;SDS011;43754;56.992;24.292;2022-10-31T07:44:54;36.92;;;20.20;;
57947;SDS011;43754;56.992;24.292;2022-10-31T07:47:47;33.00;;;16.75;;
57947;SDS011;43754;56.992;24.292;2022-10-31T07:50:40;37.08;;;13.00;;
57947;SDS011;43754;56.992;24.292;2022-10-31T07:53:30;29.95;;;12.35;;
57947;SDS011;43754;56.992;24.292;2022-10-31T07:56:12;34.95;;;15.60;;
57947;SDS011;43754;56.992;24.292;2022-10-31T07:58:44;28.00;;;14.38;;
57947;SDS011;43754;56.992;24.292;2022-10-31T08:01:17;25.42;;;11.88;;
57947;SDS011;43754;56.992;24.292;2022-10-31T08:04:02;26.85;;;11.85;;
57947;SDS011;43754;56.992;24.292;2022-10-31T08:09:36;24.63;;;12.18;;
57947;SDS011;43754;56.992;24.292;2022-10-31T08:12:18;19.05;;;10.65;;
57947;SDS011;43754;56.992;24.292;2022-10-31T08:14:51;23.52;;;11.43;;
57947;SDS011;43754;56.992;24.292;2022-10-31T08:17:23;32.75;;;14.98;;
57947;SDS011;43754;56.992;24.292;2022-10-31T08:19:59;30.92;;;16.20;;
57947;SDS011;43754;56.992;24.292;2022-10-31T08:22:37;39.75;;;17.17;;
57947;SDS011;43754;56.992;24.292;2022-10-31T08:25:14;37.63;;;16.55;;
57947;SDS011;43754;56.992;24.292;2022-10-31T08:27:48;41.28;;;17.63;;
57947;SDS011;43754;56.992;24.292;2022-10-31T08:30:22;29.83;;;14.32;;
57947;SDS011;43754;56.992;24.292;2022-10-31T08:33:16;25.45;;;13.05;;
57947;SDS011;43754;56.992;24.292;2022-10-31T08:36:19;33.50;;;16.88;;
57947;SDS011;43754;56.992;24.292;2022-10-31T08:39:27;39.58;;;19.85;;
57947;SDS011;43754;56.992;24.292;2022-10-31T08:42:02;28.15;;;15.57;;
57947;SDS011;43754;56.992;24.292;2022-10-31T08:44:34;28.42;;;15.90;;
57947;SDS011;43754;56.992;24.292;2022-10-31T08:47:07;41.55;;;21.58;;
57947;SDS011;43754;56.992;24.292;2022-10-31T08:49:40;35.15;;;20.98;;
57947;SDS011;43754;56.992;24.292;2022-10-31T08:52:13;29.88;;;15.40;;
57947;SDS011;43754;56.992;24.292;2022-10-31T08:54:49;28.08;;;12.27;;
57947;SDS011;43754;56.992;24.292;2022-10-31T08:57:47;17.90;;;9.93;;
57947;SDS011;43754;56.992;24.292;2022-10-31T09:00:21;15.32;;;8.98;;
57947;SDS011;43754;56.992;24.292;2022-10-31T09:05:36;16.00;;;9.10;;
57947;SDS011;43754;56.992;24.292;2022-10-31T09:08:08;116.25;;;30.05;;
57947;SDS011;43754;56.992;24.292;2022-10-31T09:10:50;114.22;;;31.48;;
57947;SDS011;43754;56.992;24.292;2022-10-31T09:13:41;25.35;;;11.05;;
57947;SDS011;43754;56.992;24.292;2022-10-31T09:16:33;15.77;;;6.82;;
57947;SDS011;43754;56.992;24.292;2022-10-31T09:19:05;12.32;;;5.25;;
57947;SDS011;43754;56.992;24.292;2022-10-31T09:21:42;14.55;;;7.07;;
57947;SDS011;43754;56.992;24.292;2022-10-31T09:24:14;15.13;;;7.68;;
57947;SDS011;43754;56.992;24.292;2022-10-31T09:26:48;10.15;;;4.28;;
57947;SDS011;43754;56.992;24.292;2022-10-31T09:29:31;28.05;;;8.02;;
57947;SDS011;43754;56.992;24.292;2022-10-31T09:32:05;11.40;;;4.13;;
57947;SDS011;43754;56.992;24.292;2022-10-31T09:34:43;7.38;;;2.08;;
57947;SDS011;43754;56.992;24.292;2022-10-31T09:37:19;4.35;;;2.40;;
57947;SDS011;43754;56.992;24.292;2022-10-31T09:39:51;4.97;;;1.73;;
57947;SDS011;43754;56.992;24.292;2022-10-31T09:42:40;7.78;;;1.83;;
57947;SDS011;43754;56.992;24.292;2022-10-31T09:45:26;11.68;;;2.53;;
57947;SDS011;43754;56.992;24.292;2022-10-31T09:48:14;5.45;;;2.28;;
57947;SDS011;43754;56.992;24.292;2022-10-31T09:51:12;7.93;;;2.25;;
57947;SDS011;43754;56.992;24.292;2022-10-31T09:54:00;8.30;;;1.83;;
57947;SDS011;43754;56.992;24.292;2022-10-31T09:56:36;10.40;;;2.50;;
57947;SDS011;43754;56.992;24.292;2022-10-31T09:59:12;8.75;;;2.50;;
57947;SDS011;43754;56.992;24.292;2022-10-31T10:01:54;6.90;;;2.20;;
57947;SDS011;43754;56.992;24.292;2022-10-31T10:04:32;7.68;;;2.40;;
57947;SDS011;43754;56.992;24.292;2022-10-31T10:07:22;5.80;;;1.83;;
57947;SDS011;43754;56.992;24.292;2022-10-31T10:10:14;4.53;;;1.67;;
57947;SDS011;43754;56.992;24.292;2022-10-31T10:13:14;7.10;;;1.30;;
57947;SDS011;43754;56.992;24.292;2022-10-31T10:16:14;6.93;;;1.40;;
57947;SDS011;43754;56.992;24.292;2022-10-31T10:18:57;5.40;;;1.40;;
57947;SDS011;43754;56.992;24.292;2022-10-31T10:21:42;4.07;;;1.17;;
57947;SDS011;43754;56.992;24.292;2022-10-31T10:24:24;5.95;;;1.98;;
57947;SDS011;43754;56.992;24.292;2022-10-31T10:27:11;6.80;;;1.80;;
57947;SDS011;43754;56.992;24.292;2022-10-31T10:29:56;7.05;;;2.22;;
57947;SDS011;43754;56.992;24.292;2022-10-31T10:32:35;7.30;;;2.58;;
57947;SDS011;43754;56.992;24.292;2022-10-31T10:35:22;9.18;;;2.63;;
57947;SDS011;43754;56.992;24.292;2022-10-31T10:37:57;8.32;;;2.20;;
57947;SDS011;43754;56.992;24.292;2022-10-31T10:40:34;10.05;;;2.33;;
57947;SDS011;43754;56.992;24.292;2022-10-31T10:43:12;15.27;;;4.40;;
57947;SDS011;43754;56.992;24.292;2022-10-31T10:45:54;10.48;;;2.53;;
57947;SDS011;43754;56.992;24.292;2022-10-31T10:48:57;3.25;;;1.25;;
57947;SDS011;43754;56.992;24.292;2022-10-31T10:51:36;5.50;;;0.63;;
57947;SDS011;43754;56.992;24.292;2022-10-31T10:54:42;1.90;;;1.10;;
57947;SDS011;43754;56.992;24.292;2022-10-31T11:00:22;18.45;;;5.60;;
57947;SDS011;43754;56.992;24.292;2022-10-31T11:02:55;14.02;;;5.07;;
57947;SDS011;43754;56.992;24.292;2022-10-31T11:05:30;10.45;;;3.65;;
57947;SDS011;43754;56.992;24.292;2022-10-31T11:08:06;5.55;;;1.70;;
57947;SDS011;43754;56.992;24.292;2022-10-31T11:10:39;6.50;;;2.83;;
57947;SDS011;43754;56.992;24.292;2022-10-31T11:13:19;5.28;;;2.22;;
57947;SDS011;43754;56.992;24.292;2022-10-31T11:15:59;4.13;;;1.60;;
57947;SDS011;43754;56.992;24.292;2022-10-31T11:18:34;3.45;;;1.02;;
57947;SDS011;43754;56.992;24.292;2022-10-31T11:21:19;5.18;;;2.45;;
57947;SDS011;43754;56.992;24.292;2022-10-31T11:24:01;10.95;;;3.83;;
57947;SDS011;43754;56.992;24.292;2022-10-31T11:26:34;13.90;;;5.57;;
57947;SDS011;43754;56.992;24.292;2022-10-31T11:29:10;9.93;;;3.88;;
57947;SDS011;43754;56.992;24.292;2022-10-31T11:31:46;33.87;;;9.33;;
57947;SDS011;43754;56.992;24.292;2022-10-31T11:34:25;17.20;;;5.35;;
57947;SDS011;43754;56.992;24.292;2022-10-31T11:37:04;48.78;;;12.23;;
57947;SDS011;43754;56.992;24.292;2022-10-31T11:39:44;16.30;;;5.18;;
57947;SDS011;43754;56.992;24.292;2022-10-31T11:45:05;9.93;;;3.63;;
57947;SDS011;43754;56.992;24.292;2022-10-31T11:47:46;7.03;;;3.10;;
57947;SDS011;43754;56.992;24.292;2022-10-31T11:50:24;28.65;;;9.40;;
57947;SDS011;43754;56.992;24.292;2022-10-31T11:53:00;12.05;;;3.70;;
57947;SDS011;43754;56.992;24.292;2022-10-31T11:55:34;6.43;;;3.17;;
57947;SDS011;43754;56.992;24.292;2022-10-31T11:58:19;8.00;;;3.05;;
57947;SDS011;43754;56.992;24.292;2022-10-31T12:00:53;9.70;;;3.35;;
57947;SDS011;43754;56.992;24.292;2022-10-31T12:03:27;13.27;;;5.97;;
57947;SDS011;43754;56.992;24.292;2022-10-31T12:06:11;9.77;;;3.88;;
57947;SDS011;43754;56.992;24.292;2022-10-31T12:08:48;5.47;;;3.22;;
57947;SDS011;43754;56.992;24.292;2022-10-31T12:11:30;10.00;;;4.53;;
57947;SDS011;43754;56.992;24.292;2022-10-31T12:14:17;8.15;;;3.83;;
57947;SDS011;43754;56.992;24.292;2022-10-31T12:17:04;7.80;;;3.38;;
57947;SDS011;43754;56.992;24.292;2022-10-31T12:19:46;6.10;;;3.28;;
57947;SDS011;43754;56.992;24.292;2022-10-31T12:22:28;7.28;;;3.83;;
57947;SDS011;43754;56.992;24.292;2022-10-31T12:25:13;8.18;;;3.45;;
57947;SDS011;43754;56.992;24.292;2022-10-31T12:28:03;11.52;;;3.45;;
57947;SDS011;43754;56.992;24.292;2022-10-31T12:31:03;9.80;;;3.92;;
57947;SDS011;43754;56.992;24.292;2022-10-31T12:33:47;7.03;;;4.30;;
57947;SDS011;43754;56.992;24.292;2022-10-31T12:36:34;8.88;;;3.00;;
57947;SDS011;43754;56.992;24.292;2022-10-31T12:39:22;9.30;;;2.63;;
57947;SDS011;43754;56.992;24.292;2022-10-31T12:41:59;7.38;;;3.38;;
57947;SDS011;43754;56.992;24.292;2022-10-31T12:44:44;7.15;;;2.90;;
57947;SDS011;43754;56.992;24.292;2022-10-31T12:47:42;9.55;;;3.10;;
57947;SDS011;43754;56.992;24.292;2022-10-31T12:50:27;9.35;;;3.28;;
57947;SDS011;43754;56.992;24.292;2022-10-31T12:53:10;11.57;;;3.00;;
57947;SDS011;43754;56.992;24.292;2022-10-31T12:55:55;12.55;;;4.10;;
57947;SDS011;43754;56.992;24.292;2022-10-31T12:58:36;13.80;;;3.90;;
57947;SDS011;43754;56.992;24.292;2022-10-31T13:01:14;7.72;;;3.20;;
57947;SDS011;43754;56.992;24.292;2022-10-31T13:03:50;6.70;;;2.78;;
57947;SDS011;43754;56.992;24.292;2022-10-31T13:06:29;10.95;;;2.40;;
57947;SDS011;43754;56.992;24.292;2022-10-31T13:09:05;6.25;;;2.97;;
57947;SDS011;43754;56.992;24.292;2022-10-31T13:11:42;9.15;;;2.47;;
57947;SDS011;43754;56.992;24.292;2022-10-31T13:14:21;9.68;;;2.65;;
57947;SDS011;43754;56.992;24.292;2022-10-31T13:16:57;6.25;;;2.60;;
57947;SDS011;43754;56.992;24.292;2022-10-31T13:19:33;8.10;;;2.97;;
57947;SDS011;43754;56.992;24.292;2022-10-31T13:22:10;10.23;;;2.75;;
57947;SDS011;43754;56.992;24.292;2022-10-31T13:24:52;8.32;;;2.47;;
57947;SDS011;43754;56.992;24.292;2022-10-31T13:27:28;5.78;;;1.90;;
57947;SDS011;43754;56.992;24.292;2022-10-31T13:30:04;7.25;;;2.90;;
57947;SDS011;43754;56.992;24.292;2022-10-31T13:32:46;6.35;;;1.95;;
57947;SDS011;43754;56.992;24.292;2022-10-31T13:35:23;5.10;;;1.42;;
57947;SDS011;43754;56.992;24.292;2022-10-31T13:38:03;8.77;;;1.80;;
57947;SDS011;43754;56.992;24.292;2022-10-31T13:40:44;9.45;;;2.75;;
57947;SDS011;43754;56.992;24.292;2022-10-31T13:43:24;8.20;;;2.20;;
57947;SDS011;43754;56.992;24.292;2022-10-31T13:48:57;11.05;;;2.97;;
57947;SDS011;43754;56.992;24.292;2022-10-31T13:51:30;6.80;;;2.42;;
57947;SDS011;43754;56.992;24.292;2022-10-31T13:54:06;6.50;;;2.55;;
57947;SDS011;43754;56.992;24.292;2022-10-31T13:56:52;5.80;;;2.40;;
57947;SDS011;43754;56.992;24.292;2022-10-31T13:59:25;8.13;;;2.40;;
57947;SDS011;43754;56.992;24.292;2022-10-31T14:02:00;8.95;;;3.67;;
57947;SDS011;43754;56.992;24.292;2022-10-31T14:04:44;9.77;;;3.92;;
57947;SDS011;43754;56.992;24.292;2022-10-31T14:07:20;13.02;;;3.55;;
57947;SDS011;43754;56.992;24.292;2022-10-31T14:09:55;5.07;;;2.45;;
57947;SDS011;43754;56.992;24.292;2022-10-31T14:12:30;10.65;;;3.15;;
57947;SDS011;43754;56.992;24.292;2022-10-31T14:15:05;10.80;;;2.58;;
57947;SDS011;43754;56.992;24.292;2022-10-31T14:17:49;10.25;;;3.15;;
57947;SDS011;43754;56.992;24.292;2022-10-31T14:20:25;5.68;;;2.55;;
57947;SDS011;43754;56.992;24.292;2022-10-31T14:23:10;11.95;;;2.33;;
57947;SDS011;43754;56.992;24.292;2022-10-31T14:26:18;8.38;;;2.30;;
57947;SDS011;43754;56.992;24.292;2022-10-31T14:28:53;6.90;;;2.20;;
57947;SDS011;43754;56.992;24.292;2022-10-31T14:31:35;9.35;;;2.58;;
57947;SDS011;43754;56.992;24.292;2022-10-31T14:34:20;9.82;;;2.70;;
57947;SDS011;43754;56.992;24.292;2022-10-31T14:36:58;7.45;;;2.75;;
57947;SDS011;43754;56.992;24.292;2022-10-31T14:39:45;5.55;;;2.22;;
57947;SDS011;43754;56.992;24.292;2022-10-31T14:42:36;9.23;;;2.83;;
57947;SDS011;43754;56.992;24.292;2022-10-31T14:45:26;7.47;;;2.80;;
57947;SDS011;43754;56.992;24.292;2022-10-31T14:48:10;8.57;;;2.60;;
57947;SDS011;43754;56.992;24.292;2022-10-31T14:50:54;14.35;;;2.90;;
57947;SDS011;43754;56.992;24.292;2022-10-31T14:53:29;9.57;;;2.72;;
57947;SDS011;43754;56.992;24.292;2022-10-31T14:56:04;7.45;;;3.08;;
57947;SDS011;43754;56.992;24.292;2022-10-31T14:58:42;11.82;;;3.13;;
57947;SDS011;43754;56.992;24.292;2022-10-31T15:01:21;10.85;;;3.25;;
57947;SDS011;43754;56.992;24.292;2022-10-31T15:03:57;7.72;;;3.58;;
57947;SDS011;43754;56.992;24.292;2022-10-31T15:06:54;7.65;;;2.80;;
57947;SDS011;43754;56.992;24.292;2022-10-31T15:09:31;10.63;;;4.75;;
57947;SDS011;43754;56.992;24.292;2022-10-31T15:12:16;16.15;;;7.45;;
57947;SDS011;43754;56.992;24.292;2022-10-31T15:14:55;16.40;;;7.72;;
57947;SDS011;43754;56.992;24.292;2022-10-31T15:17:29;13.65;;;5.78;;
57947;SDS011;43754;56.992;24.292;2022-10-31T15:20:01;15.90;;;7.15;;
57947;SDS011;43754;56.992;24.292;2022-10-31T15:22:36;13.07;;;5.97;;
57947;SDS011;43754;56.992;24.292;2022-10-31T15:25:12;17.65;;;6.97;;
57947;SDS011;43754;56.992;24.292;2022-10-31T15:27:49;10.90;;;4.82;;
57947;SDS011;43754;56.992;24.292;2022-10-31T15:30:22;21.38;;;9.88;;
57947;SDS011;43754;56.992;24.292;2022-10-31T15:32:56;19.52;;;8.70;;
57947;SDS011;43754;56.992;24.292;2022-10-31T15:35:30;24.42;;;11.23;;
57947;SDS011;43754;56.992;24.292;2022-10-31T15:38:03;16.92;;;9.57;;
57947;SDS011;43754;56.992;24.292;2022-10-31T15:40:36;33.22;;;19.17;;
57947;SDS011;43754;56.992;24.292;2022-10-31T15:43:10;48.75;;;25.30;;
57947;SDS011;43754;56.992;24.292;2022-10-31T15:45:47;57.10;;;28.42;;
57947;SDS011;43754;56.992;24.292;2022-10-31T15:48:21;52.83;;;25.08;;
57947;SDS011;43754;56.992;24.292;2022-10-31T15:50:55;66.47;;;30.70;;